KMOD/MOD METAR and TAF weather

Enter ICAO airport designator
Station Type Date Time Source
KMOD METAR 2021/05/14 22:53 UTC NOAA

KMOD 142253Z 33011KT 10SM CLR 28/08 A2979 RMK AO2 SLP088 T02780078


Station Type Date Time Source
KMOD Decoded METAR 2021/05/14 22:53 UTC NOAA

MODESTO CITY CO SHAM FLD, CA, United States (KMOD) 37-37N 120-57W 29M
May 14, 2021 - 06:53 PM EDT / 2021.05.14 2253 UTC
Wind: from the NNW (330 degrees) at 13 MPH (11 KT):0
Visibility: 10 mile(s):0
Sky conditions: clear
Temperature: 82.0 F (27.8 C)
Dew Point: 46.0 F (7.8 C)
Relative Humidity: 28%
Pressure (altimeter): 29.79 in. Hg (1008 hPa)
ob: KMOD 142253Z 33011KT 10SM CLR 28/08 A2979 RMK AO2 SLP088 T02780078
cycle: 23

Station Type Date Time Source
KMOD TAF 2021/05/14 18:44 UTC NOAA

TAF KMOD 141735Z 1418/1518 33008KT P6SM SKC
FM150000 33012G19KT P6SM FEW250
FM150600 33011KT P6SM FEW250

Example: see airport list